Hlavní strana
METAR-TAF:

METAR-TAF

Letiště :

Ipiales, Kolumbie

zeměpisná šířka: 00-49N, zeměpisná délka: 077-38W, výška: 2961 m

Aktuální stav počasí

Zpráva byla vytvořena před 6 hodinami a 57 minutami, v 19:00 UTC
Východojihovýchodní vítr 9 kt
Teplota 15°C
Vlhkost vzduchu 77%
Tlak 1030 hPa
Viditelnost 10 km a více
Oblačno až skoro zataženo ve výšce 1600 ft

METAR: SKIP 081900Z 12009KT 9999 BKN016 15/11 A3042 RMK VCSH/SE

Čas: 20:57 (01:57 UTC)


TAF: chybějící

Stav a předpovědi počasí z více než 4 000 letišť (zprávy METAR a TAF).

Červené a žluté tečky na mapě představují dostupné meteorologické stanice.

Když kurzor umístíte na tečku, zobrazí se název stanice.

Pak kliknutím zobrazíte stav a předpověď počasí.

Chcete-li změnit mapu, kliknutím na zelené tlačítko se znaménkem +mapu přiblížíte, kliknutím na zelené tlačítko se znaménkem – mapu oddálíte a kliknutím na zelené šipky přejdete na sousední mapy.


METAR-TAF: